createdAt,value
2023-10-12T00:01:10.049Z,12.40
2023-10-12T00:06:14.933Z,13.52
2023-10-12T00:11:21.159Z,15.45
2023-10-12T00:16:24.005Z,15.50
2023-10-12T00:21:29.340Z,14.73
2023-10-12T00:26:32.456Z,12.32
2023-10-12T00:31:36.802Z,15.07
2023-10-12T00:36:41.654Z,15.57
2023-10-12T00:41:46.731Z,13.30
2023-10-12T00:46:57.881Z,15.60
2023-10-12T00:52:09.251Z,15.45
2023-10-12T00:57:11.424Z,14.75
2023-10-12T01:02:13.653Z,14.85
2023-10-12T01:07:22.193Z,16.33
2023-10-12T01:12:31.510Z,13.13
2023-10-12T01:17:36.621Z,15.77
2023-10-12T01:22:40.284Z,16.77
2023-10-12T01:27:42.686Z,17.33
2023-10-12T01:32:44.920Z,16.85
2023-10-12T01:37:56.846Z,16.30
2023-10-12T01:42:59.047Z,16.98
2023-10-12T01:48:12.934Z,17.40
2023-10-12T01:53:30.849Z,18.05
2023-10-12T01:58:37.005Z,20.58
2023-10-12T02:03:43.844Z,21.90
2023-10-12T02:08:46.631Z,22.05
2023-10-12T02:13:49.424Z,21.80
2023-10-12T02:18:57.840Z,19.38
2023-10-12T02:24:20.791Z,21.70
2023-10-12T02:29:23.198Z,22.25
2023-10-12T02:34:27.471Z,19.85
2023-10-12T02:39:39.205Z,22.10
2023-10-12T02:44:49.121Z,22.90
2023-10-12T02:50:01.890Z,22.58
2023-10-12T02:55:19.087Z,22.10
2023-10-12T03:00:25.057Z,23.17
2023-10-12T03:05:35.241Z,24.88
2023-10-12T03:10:46.770Z,22.63
2023-10-12T03:15:50.562Z,24.45
2023-10-12T03:21:05.724Z,25.65
2023-10-12T03:26:27.540Z,24.58
2023-10-12T03:31:42.886Z,25.23
2023-10-12T03:36:49.370Z,25.92
2023-10-12T03:41:52.607Z,24.90
2023-10-12T03:46:59.139Z,25.02
2023-10-12T03:52:08.396Z,23.83
2023-10-12T03:57:20.867Z,19.30
2023-10-12T04:02:25.262Z,22.90
2023-10-12T04:07:47.656Z,23.30
2023-10-12T04:13:08.053Z,23.10
2023-10-12T04:18:15.165Z,24.15
2023-10-12T04:23:33.566Z,23.95
2023-10-12T04:28:36.337Z,22.63
2023-10-12T04:33:44.716Z,22.55
2023-10-12T04:38:57.484Z,22.85
2023-10-12T04:44:18.660Z,22.88
2023-10-12T04:49:20.872Z,22.30
2023-10-12T04:54:25.631Z,22.88
2023-10-12T04:59:43.656Z,23.85
2023-10-12T05:04:45.950Z,23.70
2023-10-12T05:09:51.150Z,25.35
2023-10-12T05:14:56.676Z,24.30
2023-10-12T05:19:58.826Z,24.65
2023-10-12T05:25:01.304Z,22.83
2023-10-12T05:30:07.203Z,23.65
2023-10-12T05:35:16.804Z,23.30
2023-10-12T05:40:19.085Z,22.77
2023-10-12T05:45:28.687Z,23.17
2023-10-12T05:50:32.333Z,20.98
2023-10-12T05:55:35.317Z,20.17
2023-10-12T06:00:37.764Z,18.73
2023-10-12T06:05:40.157Z,17.48
2023-10-12T06:10:42.611Z,17.23
2023-10-12T06:15:50.805Z,15.82
2023-10-12T06:21:07.889Z,17.45
2023-10-12T06:26:16.743Z,16.75
2023-10-12T06:31:22.599Z,17.27
2023-10-12T06:36:39.968Z,17.83
2023-10-12T06:41:46.103Z,18.17
2023-10-12T06:46:55.096Z,17.67
2023-10-12T06:52:03.294Z,17.42
2023-10-12T06:57:18.849Z,17.23
2023-10-12T07:02:31.194Z,17.35
2023-10-12T07:07:42.770Z,17.38
2023-10-12T07:12:49.654Z,17.05
2023-10-12T07:17:52.029Z,16.95
2023-10-12T07:22:57.968Z,16.85
2023-10-12T07:28:03.015Z,16.92
2023-10-12T07:33:14.307Z,16.20
2023-10-12T07:38:29.516Z,16.08
2023-10-12T07:43:33.362Z,15.48
2023-10-12T07:48:43.689Z,15.77
2023-10-12T07:53:51.951Z,15.53
2023-10-12T07:58:59.906Z,15.30
2023-10-12T08:04:04.885Z,15.55
2023-10-12T08:09:22.327Z,15.25
2023-10-12T08:14:24.720Z,15.20
2023-10-12T08:19:30.134Z,15.88
2023-10-12T08:24:37.388Z,14.80
2023-10-12T08:29:39.907Z,13.90
2023-10-12T08:34:43.163Z,14.85
2023-10-12T08:39:52.345Z,14.10
2023-10-12T08:44:56.170Z,15.05
2023-10-12T08:50:06.342Z,13.15
2023-10-12T08:55:13.250Z,13.37
2023-10-12T09:00:24.859Z,14.07
2023-10-12T09:05:37.177Z,13.57
2023-10-12T09:11:01.153Z,14.52
2023-10-12T09:16:05.392Z,14.05
2023-10-12T09:21:22.610Z,13.77
2023-10-12T09:26:35.256Z,13.57
2023-10-12T09:31:39.968Z,13.38
2023-10-12T09:36:56.192Z,13.27
2023-10-12T09:47:36.854Z,14.73
2023-10-12T09:52:48.403Z,14.25
2023-10-12T09:57:52.537Z,13.93
2023-10-12T10:03:00.919Z,13.63
2023-10-12T10:08:07.636Z,13.52
2023-10-12T10:13:47.748Z,13.93
2023-10-12T10:18:58.113Z,14.50
2023-10-12T10:24:01.138Z,13.85
2023-10-12T10:29:06.573Z,14.43
2023-10-12T10:34:13.027Z,16.00
2023-10-12T10:39:15.199Z,14.60
2023-10-12T10:44:22.996Z,14.20
2023-10-12T10:49:34.235Z,13.05
2023-10-12T10:54:40.978Z,11.93
2023-10-12T10:59:46.658Z,12.35
2023-10-12T11:04:56.302Z,11.57
2023-10-12T11:09:58.494Z,12.60
2023-10-12T11:15:08.807Z,14.25
2023-10-12T11:20:43.281Z,11.13
2023-10-12T11:25:46.951Z,9.80
2023-10-12T11:31:03.991Z,10.50
2023-10-12T11:36:07.321Z,9.48
2023-10-12T11:41:14.935Z,9.70
2023-10-12T11:46:17.321Z,9.57
2023-10-12T11:51:21.710Z,9.25
2023-10-12T11:56:26.698Z,9.10
2023-10-12T12:01:29.954Z,9.68
2023-10-12T12:06:33.609Z,9.80
2023-10-12T12:11:39.252Z,9.30
2023-10-12T12:16:41.790Z,9.77
2023-10-12T12:21:46.768Z,9.38
2023-10-12T12:26:56.028Z,9.77
2023-10-12T12:31:58.997Z,9.75
2023-10-12T12:37:06.135Z,9.75
2023-10-12T12:42:11.946Z,9.15
2023-10-12T12:47:17.664Z,9.88
2023-10-12T12:52:20.154Z,9.55
2023-10-12T12:57:24.384Z,10.35
2023-10-12T13:02:26.574Z,10.18
2023-10-12T13:07:29.460Z,9.35
2023-10-12T13:12:32.680Z,9.32
2023-10-12T13:17:35.912Z,9.05
2023-10-12T13:22:38.244Z,7.57
2023-10-12T13:27:40.922Z,8.98
2023-10-12T13:32:43.959Z,9.20
2023-10-12T13:37:46.517Z,8.30
2023-10-12T13:42:48.584Z,8.77
2023-10-12T13:47:53.189Z,8.70
2023-10-12T13:52:55.388Z,9.13
2023-10-12T13:57:58.770Z,9.32
2023-10-12T14:03:11.814Z,8.48
2023-10-12T14:08:14.353Z,8.73
2023-10-12T14:13:16.527Z,8.95
2023-10-12T14:18:18.695Z,8.27
2023-10-12T14:23:20.783Z,8.55
2023-10-12T14:28:23.077Z,8.43
2023-10-12T14:33:26.730Z,8.63
2023-10-12T14:38:32.226Z,9.52
2023-10-12T14:43:37.181Z,9.02
2023-10-12T14:48:40.057Z,8.45
2023-10-12T14:53:45.171Z,8.70
2023-10-12T14:58:47.718Z,10.63
2023-10-12T15:03:50.180Z,9.13
2023-10-12T15:08:56.193Z,9.48
2023-10-12T15:13:58.521Z,8.75
2023-10-12T15:19:07.978Z,10.43
2023-10-12T15:24:11.096Z,10.27
2023-10-12T15:29:13.145Z,11.48
2023-10-12T15:34:15.214Z,10.75
2023-10-12T15:39:17.806Z,11.10
2023-10-12T15:44:20.006Z,11.18
2023-10-12T15:49:23.337Z,11.50
2023-10-12T15:54:27.019Z,11.20
2023-10-12T15:59:29.234Z,11.25
2023-10-12T16:04:32.099Z,12.13
2023-10-12T16:09:34.352Z,11.70
2023-10-12T16:14:36.416Z,11.98
2023-10-12T16:19:38.821Z,12.40
2023-10-12T16:24:43.423Z,13.20
2023-10-12T16:29:59.485Z,12.20
2023-10-12T16:35:02.687Z,11.85
2023-10-12T16:40:06.990Z,12.05
2023-10-12T16:45:10.746Z,12.65
2023-10-12T16:50:13.871Z,11.88
2023-10-12T16:55:17.421Z,12.60
2023-10-12T17:00:19.565Z,13.20
2023-10-12T17:05:24.134Z,14.60
2023-10-12T17:10:34.811Z,13.45
2023-10-12T17:15:40.723Z,13.88
2023-10-12T17:20:43.086Z,14.35
2023-10-12T17:25:45.387Z,13.63
2023-10-12T17:30:49.141Z,15.00
2023-10-12T17:35:51.651Z,14.77
2023-10-12T17:40:54.701Z,14.77
2023-10-12T17:45:57.543Z,15.82
2023-10-12T17:50:59.905Z,14.50
2023-10-12T17:56:09.215Z,15.05
2023-10-12T18:01:12.460Z,15.05
2023-10-12T18:06:14.608Z,14.65
2023-10-12T18:11:17.224Z,15.50
2023-10-12T18:16:19.792Z,15.98
2023-10-12T18:21:22.132Z,15.60
2023-10-12T18:26:24.254Z,15.00
2023-10-12T18:31:27.172Z,13.77
2023-10-12T18:36:31.944Z,14.93
2023-10-12T18:41:34.361Z,13.50
2023-10-12T18:46:38.188Z,13.18
2023-10-12T18:51:40.766Z,15.20
2023-10-12T18:56:43.076Z,14.30
2023-10-12T19:01:46.318Z,14.30
2023-10-12T19:06:49.475Z,15.77
2023-10-12T19:11:51.891Z,14.60
2023-10-12T19:16:54.177Z,15.18
2023-10-12T19:21:56.418Z,15.00
2023-10-12T19:26:58.759Z,14.18
2023-10-12T19:32:01.055Z,14.43
2023-10-12T19:37:03.587Z,13.60
2023-10-12T19:42:06.435Z,13.02
2023-10-12T19:47:08.629Z,11.65
2023-10-12T19:52:12.067Z,13.05
2023-10-12T19:57:17.506Z,14.07
2023-10-12T20:02:22.307Z,13.18
2023-10-12T20:07:24.751Z,13.82
2023-10-12T20:12:26.923Z,11.18
2023-10-12T20:17:29.291Z,13.75
2023-10-12T20:22:31.913Z,12.38
2023-10-12T20:27:35.283Z,11.50
2023-10-12T20:32:41.554Z,11.30
2023-10-12T20:37:43.724Z,8.93
2023-10-12T20:42:47.834Z,9.68
2023-10-12T20:47:49.965Z,9.57
2023-10-12T20:52:55.876Z,10.32
2023-10-12T20:58:00.715Z,10.15
2023-10-12T21:03:06.879Z,10.30
2023-10-12T21:08:20.853Z,9.90
2023-10-12T21:13:26.896Z,10.27
2023-10-12T21:18:35.301Z,10.55
2023-10-12T21:23:51.586Z,11.32
2023-10-12T21:29:13.310Z,10.75
2023-10-12T21:34:15.519Z,11.60
2023-10-12T21:39:30.785Z,11.57
2023-10-12T21:44:32.903Z,11.30
2023-10-12T21:49:35.037Z,10.88
2023-10-12T21:54:37.605Z,10.75
2023-10-12T21:59:40.178Z,9.70
2023-10-12T22:04:43.765Z,8.65
2023-10-12T22:09:47.020Z,9.95
2023-10-12T22:14:51.730Z,8.95
2023-10-12T22:19:56.592Z,8.68
2023-10-12T22:24:58.853Z,8.95
2023-10-12T22:30:01.064Z,8.30
2023-10-12T22:35:03.501Z,8.32
2023-10-12T22:40:07.233Z,7.97
2023-10-12T22:45:16.965Z,7.65
2023-10-12T22:50:19.363Z,8.52
2023-10-12T22:55:21.493Z,7.90
2023-10-12T23:00:27.087Z,7.25
2023-10-12T23:05:31.198Z,6.72
2023-10-12T23:10:33.517Z,6.75
2023-10-12T23:15:44.109Z,6.78
2023-10-12T23:20:47.465Z,5.95
2023-10-12T23:25:49.568Z,6.05
2023-10-12T23:30:53.445Z,5.78
2023-10-12T23:35:55.986Z,5.82
2023-10-12T23:41:19.485Z,6.13
2023-10-12T23:46:26.150Z,6.53
2023-10-12T23:51:29.507Z,7.18
2023-10-12T23:56:31.650Z,6.38
